»·PEaware :: N7MR CYYC-CYXC

N7MR :: CYYC-CYXC

FLIGHT INFORMATION

Flight Status: Arrived
Operator: Privately registered:
United States
More flights under this callsign
Pilot: Gavin B. (19371)
Aircraft: PILATUS PC-12 EAGLE
(PC12)
More flights by this aircraft type
Origin: CYYC Calgary Intl
Canada
Destination: CYXC Cranbrook
Canada
More flights between these airports :: More routes between these airports
Route: DUMRA T620 OMSIK SX
File this flight plan on PilotEdge
Remarks:
Altitude:
(Current/Filed)
25,000ft
Speed:
(Current/Filed)
200kts
Departed: 15-Sep-18 06:03 AM
Arrived: 15-Sep-18 06:46 AM
Distance/Time
Traveled:
113nm/0:42
Distance/Time
To Go:
Arrived

Flight Plot

Page will automatically refresh every two minutes.

Flight plan parsing failed; only flown route is shown


Map Options




Map Legend


Flown Route
Filed Route
Departure Airport
Arrival Airport
Navaid (VOR, NDB)
Fix

Horizontal Profiles

Position Reports

Time Latitude Longitude Heading Altitude Ground
Speed
15-Sep-18 05:50 51.097513 -114.016090 219 3561ft 0kts
15-Sep-18 05:51 51.097513 -114.016090 219 3561ft 0kts
15-Sep-18 05:52 51.097513 -114.016090 219 3561ft 0kts
15-Sep-18 05:53 51.097513 -114.016090 219 3561ft 0kts
15-Sep-18 05:54 51.097513 -114.016090 219 3561ft 0kts
15-Sep-18 05:55 51.097513 -114.016090 219 3561ft 0kts
15-Sep-18 05:56 51.097513 -114.016090 219 3561ft 0kts
15-Sep-18 05:57 51.097159 -114.016771 250 3561ft 9kts
15-Sep-18 05:58 51.097090 -114.019665 62 3561ft 5kts
15-Sep-18 05:59 51.100305 -114.017955 359 3561ft 14kts
15-Sep-18 06:00 51.105181 -114.017961 359 3561ft 20kts
15-Sep-18 06:01 51.110714 -114.017987 0 3561ft 18kts
15-Sep-18 06:02 51.115838 -114.018015 351 3561ft 14kts
15-Sep-18 06:03 51.120530 -114.017959 0 3561ft 19kts
15-Sep-18 06:04 51.125662 -114.017984 354 3561ft 17kts
15-Sep-18 06:05 51.123885 -114.021325 181 3561ft 63kts
15-Sep-18 06:06 51.089163 -114.016473 183 4853ft 140kts
15-Sep-18 06:07 51.059074 -114.041318 209 6947ft 131kts
15-Sep-18 06:08 51.023982 -114.060251 203 9256ft 124kts
15-Sep-18 06:09 50.992374 -114.075666 199 11321ft 118kts
15-Sep-18 06:10 50.961563 -114.090728 197 13201ft 119kts
15-Sep-18 06:11 50.930254 -114.105984 198 15023ft 119kts
15-Sep-18 06:12 50.899044 -114.121198 198 16704ft 118kts
15-Sep-18 06:13 50.870659 -114.134976 199 18258ft 117kts
15-Sep-18 06:14 50.840174 -114.149734 200 19897ft 116kts
15-Sep-18 06:15 50.809808 -114.164446 202 21474ft 115kts
15-Sep-18 06:16 50.779571 -114.179072 203 22975ft 114kts
15-Sep-18 06:17 50.749739 -114.193502 204 24364ft 114kts
15-Sep-18 06:18 50.717402 -114.209283 203 25084ft 145kts
15-Sep-18 06:19 50.672537 -114.230997 202 25079ft 187kts
15-Sep-18 06:20 50.620320 -114.256477 203 25073ft 204kts
15-Sep-18 06:21 50.566013 -114.284440 203 25072ft 210kts
15-Sep-18 06:22 50.510158 -114.313260 203 25072ft 213kts
15-Sep-18 06:23 50.453788 -114.342232 203 25070ft 213kts
15-Sep-18 06:24 50.397642 -114.371027 203 25069ft 213kts
15-Sep-18 06:25 50.341373 -114.399815 203 25079ft 213kts
15-Sep-18 06:26 50.285414 -114.428378 203 25095ft 212kts
15-Sep-18 06:27 50.241995 -114.482928 243 25116ft 217kts
15-Sep-18 06:28 50.222736 -114.572089 243 25119ft 218kts
15-Sep-18 06:29 50.204835 -114.655858 243 25121ft 218kts
15-Sep-18 06:30 50.186921 -114.739139 243 25125ft 219kts
15-Sep-18 06:31 50.167484 -114.829094 243 25124ft 219kts
15-Sep-18 06:32 50.148027 -114.918771 243 25123ft 219kts
15-Sep-18 06:33 50.128598 -115.007816 242 25121ft 219kts
15-Sep-18 06:34 50.108439 -115.099750 243 24193ft 244kts
15-Sep-18 06:35 50.085128 -115.206623 245 21284ft 278kts
15-Sep-18 06:36 50.061066 -115.318684 245 18338ft 263kts
15-Sep-18 06:37 50.037844 -115.423542 246 15401ft 254kts
15-Sep-18 06:38 50.015116 -115.525323 248 12501ft 251kts
15-Sep-18 06:39 49.992131 -115.626754 248 9595ft 250kts
15-Sep-18 06:40 49.970260 -115.719491 247 7949ft 228kts
15-Sep-18 06:41 49.932018 -115.792712 178 7964ft 243kts
15-Sep-18 06:42 49.868551 -115.787970 178 7609ft 241kts
15-Sep-18 06:43 49.811096 -115.786635 177 6696ft 182kts
15-Sep-18 06:44 49.764674 -115.785508 179 5827ft 158kts
15-Sep-18 06:45 49.722930 -115.784549 178 5020ft 154kts
15-Sep-18 06:46 49.674157 -115.783420 179 4070ft 185kts
15-Sep-18 06:47 49.631971 -115.782447 177 3253ft 122kts
15-Sep-18 06:48 49.611166 -115.782045 178 3041ft 26kts
15-Sep-18 06:49 49.608992 -115.783950 310 3049ft 15kts
15-Sep-18 06:50 49.613160 -115.786151 34 3031ft 0kts

Navigation Log

Ident Type
Flight plan parsing failed, navigation log unavailable